Home > Products > Valid Products > MTR

000
SAUS46 KMTR 250857
MTRMHS
METAR KMHS 250856Z AUTO 00000KT 10SM FEW022 BKN043 OVC055 11/07
A2981 RMK AO2 SLP096 T01110072 58015





000
SAUS46 KMTR 250657
MTRMHS
METAR KMHS 250656Z AUTO 12005KT 10SM CLR 11/07 A2985 RMK AO2 SLP115
T01110072





000
SAUS46 KMTR 250557
MTRMHS
METAR KMHS 250556Z AUTO 10SM CLR 12/08 A2986 RMK AO2 SLP116
T01170078 10139 20111 56011





000
SAUS46 KMTR 250457
MTRMHS
METAR KMHS 250456Z AUTO VRB04KT 10SM FEW027 12/07 A2987 RMK AO2
SLP120 T01170072





000
SAUS46 KMTR 250357
MTRMHS
METAR KMHS 250356Z AUTO VRB04KT 10SM CLR 12/07 A2987 RMK AO2 SLP123
T01170072





000
SAUS46 KMTR 250357
MTRMHS
METAR KMHS 250356Z AUTO VRB04KT 10SM CLR 12/07 A2987 RMK AO2 SLP123
T01170072





000
SAUS46 KMTR 250257
MTRMHS
METAR KMHS 250256Z AUTO 00000KT 10SM CLR 12/07 A2989 RMK AO2 SLP131
T01170067 56007





000
SAUS46 KMTR 250157
MTRMHS
METAR KMHS 250156Z AUTO 00000KT 10SM CLR 12/07 A2990 RMK AO2 SLP135
T01220067





000
SAUS46 KMTR 250057
MTRMHS
METAR KMHS 250056Z AUTO 00000KT 10SM CLR 13/07 A2991 RMK AO2 SLP135
T01280072





000
SAUS46 KMTR 242357
MTRMHS
METAR KMHS 242356Z AUTO 00000KT 10SM CLR 14/08 A2992 RMK AO2 SLP139
T01390083 10161 20111 58013





000
SAUS46 KMTR 242257
MTRMHS
METAR KMHS 242256Z AUTO VRB05KT 10SM CLR 16/08 A2994 RMK AO2 SLP144
T01560083





000
SAUS46 KMTR 242157
MTRMHS
METAR KMHS 242156Z AUTO 00000KT 10SM FEW034 16/09 A2994 RMK AO2
SLP145 T01560094





000
SAUS46 KMTR 242057
MTRMHS
METAR KMHS 242056Z AUTO 00000KT 10SM BKN032 OVC040 14/10 A2996 RMK
AO2 SLP154 T01440100 58015





000
SAUS46 KMTR 242049
MTRMHS
SPECI KMHS 242048Z AUTO VRB03KT 10SM BKN030 14/09 A2997 RMK AO2
T01390094





000
SAUS46 KMTR 241957
MTRMHS
METAR KMHS 241956Z AUTO 00000KT 10SM OVC027 13/09 A2999 RMK AO2
SLP164 T01280094





000
SAUS46 KMTR 241957
MTRMHS
METAR KMHS 241956Z AUTO 00000KT 10SM OVC027 13/09 A2999 RMK AO2
SLP164 T01280094





000
SAUS46 KMTR 241757
MTRMHS
METAR KMHS 241756Z AUTO 00000KT 10SM OVC029 11/09 A3001 RMK AO2
SLP175 60001 T01110089 10117 20083 50005





000
SAUS46 KMTR 241727
MTRMHS
SPECI KMHS 241724Z AUTO 00000KT 10SM BKN027 OVC033 12/09 A3001 RMK
AO2 T01170089





000
SAUS46 KMTR 241657
MTRMHS
METAR KMHS 241656Z AUTO 00000KT 10SM SCT024 OVC036 12/09 A3001 RMK
AO2 SLP176 T01170089





000
SAUS46 KMTR 241458
MTRMHS
METAR KMHS 241456Z AUTO 00000KT 10SM OVC022 09/08 A3000 RMK AO2
RAB15E52 SLP171 P0000 60001 T00890083 55000





000
SAUS46 KMTR 241230
MTRMHS
SPECI KMHS 241229Z AUTO 00000KT 7SM SCT005 OVC025 08/08 A3000 RMK
AO2 RAB23E24 P0000 T00830078





000
SAUS46 KMTR 241158
MTRMHS
METAR KMHS 241156Z AUTO 00000KT 6SM BR OVC004 08/08 A3000 RMK AO2
RAE49 SLP170 P0003 60021 70077 T00830078 10083 20072 56015





000
SAUS46 KMTR 241138
MTRMHS
SPECI KMHS 241137Z AUTO 00000KT 4SM -RA BR OVC004 08/08 A3000 RMK
AO2 P0003 T00830078





000
SAUS46 KMTR 241121
MTRMHS
SPECI KMHS 241120Z AUTO 00000KT 2 1/2SM -RA BR OVC003 08/08 A3000
RMK AO2 P0001 T00830078





000
SAUS46 KMTR 241059
MTRMHS
METAR KMHS 241056Z AUTO 00000KT 5SM -RA BR OVC003 08/08 A3001 RMK
AO2 RAE26B55 SLP174 P0002 T00830078





000
SAUS46 KMTR 240957
MTRMHS
METAR KMHS 240956Z AUTO 00000KT 3SM -RA BR OVC004 08/07 A3003 RMK
AO2 SLP181 P0005 T00830072





000
SAUS46 KMTR 240957
MTRMHS
METAR KMHS 240956Z AUTO 00000KT 3SM -RA BR OVC004 08/07 A3003 RMK
AO2 SLP181 P0005 T00830072





000
SAUS46 KMTR 240943
MTRMHS
SPECI KMHS 240942Z AUTO 00000KT 3SM -RA BR OVC004 08/07 A3004 RMK
AO2 P0004 T00780072





000
SAUS46 KMTR 240936
MTRMHS
SPECI KMHS 240935Z AUTO 00000KT 2 1/2SM -RA BR OVC004 08/07 A3004
RMK AO2 P0004 T00780072





000
SAUS46 KMTR 240910
MTRMHS
SPECI KMHS 240909Z AUTO 00000KT 2 1/2SM -RA BR OVC007 08/07 A3004
RMK AO2 P0001 T00780072





000
SAUS46 KMTR 240857
MTRMHS
METAR KMHS 240856Z AUTO 00000KT 3SM -RA BR OVC007 08/07 A3005 RMK
AO2 SLP187 P0004 60011 T00780072 58006





000
SAUS46 KMTR 240757
MTRMHS
METAR KMHS 240756Z AUTO 00000KT 5SM -RA BR SCT004 BKN009 OVC049
08/07 A3006 RMK AO2 SLP190 P0004 T00780072 401170072





000
SAUS46 KMTR 240747
MTRMHS
SPECI KMHS 240744Z AUTO 00000KT 5SM -RA BR BKN004 OVC042 08/07 A3006
RMK AO2 P0004 T00780072





000
SAUS46 KMTR 240721
MTRMHS
SPECI KMHS 240720Z AUTO 00000KT 4SM -RA BR OVC005 08/07 A3006 RMK
AO2 P0002 T00780072





000
SAUS46 KMTR 240657
MTRMHS
METAR KMHS 240656Z AUTO 00000KT 5SM -RA BR OVC004 08/07 A3007 RMK
AO2 SLP194 P0003 T00780067





000
SAUS46 KMTR 240654
MTRMHS
SPECI KMHS 240653Z AUTO 00000KT 5SM -RA BR OVC004 08/07 A3007 RMK
AO2 P0002





000
SAUS46 KMTR 240609
MTRMHS
SPECI KMHS 240608Z AUTO 00000KT 6SM -RA BR BKN004 OVC065 08/07 A3007
RMK AO2 P0001 T00780067





000
SAUS46 KMTR 240557
MTRMHS
METAR KMHS 240556Z AUTO 00000KT 7SM -RA FEW006 OVC065 07/07 A3007
RMK AO2 SLP199 P0001 60019 T00720067 10100 20072 56003





000
SAUS46 KMTR 240444
MTRMHS
SPECI KMHS 240443Z AUTO 00000KT 4SM -RA BR FEW002 OVC055 07/07 A3007
RMK AO2 P0004 T00720067





000
SAUS46 KMTR 240358
MTRMHS
METAR KMHS 240356Z AUTO 00000KT 6SM RA BR OVC055 08/07 A3007 RMK AO2
SLP198 P0007 T00780067





000
SAUS46 KMTR 240358
MTRMHS
METAR KMHS 240356Z AUTO 00000KT 6SM RA BR OVC055 08/07 A3007 RMK AO2
SLP198 P0007 T00780067





000
SAUS46 KMTR 240259
MTRMHS
METAR KMHS 240256Z AUTO 00000KT 9SM -RA OVC060 08/07 A3008 RMK AO2
SLP202 P0004 60006 T00830067 53002





000
SAUS46 KMTR 240259
MTRMHS
METAR KMHS 240256Z AUTO 00000KT 9SM -RA OVC060 08/07 A3008 RMK AO2
SLP202 P0004 60006 T00830067 53002





000
SAUS46 KMTR 240158
MTRMHS
METAR KMHS 240156Z AUTO 00000KT 10SM -RA FEW015 OVC065 09/08 A3008
RMK AO2 RAB15 SLP200 P0001 T00890083





000
SAUS46 KMTR 240158
MTRMHS
METAR KMHS 240156Z AUTO 00000KT 10SM -RA FEW015 OVC065 09/08 A3008
RMK AO2 RAB15 SLP200 P0001 T00890083





000
SAUS46 KMTR 240058
MTRMHS
METAR KMHS 240056Z AUTO 00000KT 10SM OVC085 09/08 A3008 RMK AO2
RAE40 SLP198 P0001 T00940083





000
SAUS46 KMTR 232059
MTRMHS
METAR KMHS 232056Z AUTO 00000KT 10SM FEW041 SCT070 OVC090 11/09
A3006 RMK AO2E44 SLP188 P0002 60007 T01110094 58004





000
SAUS46 KMTR 231959
MTRMHS
METAR KMHS 231956Z AUTO 00000KT 7SM -RA FEW020 OVC050 11/09 A3006
RMK AO2 SLP192 P0003 T01060094





000
SAUS46 KMTR 231857
MTRMHS
METAR KMHS 231856Z AUTO 00000KT 9SM -RA FEW020 BKN070 OVC085 11/09
A3007 RMK AO2 SLP194 P0002 T01060094





000
SAUS46 KMTR 231857
MTRMHS
METAR KMHS 231856Z AUTO 00000KT 9SM -RA FEW020 BKN070 OVC085 11/09
A3007 RMK AO2 SLP194 P0002 T01060094





000
SAUS46 KMTR 231819
MTRMHS
SPECI KMHS 231818Z AUTO 00000KT 10SM -RA SCT016 OVC060 10/08 A3007
RMK AO2 P0001 T01000083





000
SAUS46 KMTR 231819
MTRMHS
SPECI KMHS 231818Z AUTO 00000KT 10SM -RA SCT016 OVC060 10/08 A3007
RMK AO2 P0001 T01000083





000
SAUS46 KMTR 231757
MTRMHS
METAR KMHS 231756Z AUTO 00000KT 6SM RA BR SCT018 BKN023 OVC028 09/08
A3007 RMK AO2 SLP195 P0004 60024 T00940083 10094 20083 51005





000
SAUS46 KMTR 231757
MTRMHS
METAR KMHS 231756Z AUTO 00000KT 6SM RA BR SCT018 BKN023 OVC028 09/08
A3007 RMK AO2 SLP195 P0004 60024 T00940083 10094 20083 51005





000
SAUS46 KMTR 231733
MTRMHS
SPECI KMHS 231732Z AUTO 00000KT 6SM -RA BR BKN025 BKN031 OVC055
09/08 A3007 RMK AO2 P0002 T00940078





000
SAUS46 KMTR 231657
MTRMHS
METAR KMHS 231656Z AUTO VRB04KT 7SM -RA BKN031 OVC049 09/08 A3006
RMK AO2 SLP193 P0003 T00940078





000
SAUS46 KMTR 231657
MTRMHS
METAR KMHS 231656Z AUTO VRB04KT 7SM -RA BKN031 OVC049 09/08 A3006
RMK AO2 SLP193 P0003 T00940078





000
SAUS46 KMTR 231520
MTRMHS
SPECI KMHS 231517Z AUTO 10003KT 6SM -RA BR FEW016 BKN037 OVC048
09/08 A3005 RMK AO2 P0002 T00890078





000
SAUS46 KMTR 231358
MTRMHS
METAR KMHS 231356Z AUTO 00000KT 8SM -RA OVC017 09/08 A3004 RMK AO2
SLP183 P0004 T00890078





000
SAUS46 KMTR 231257
MTRMHS
METAR KMHS 231256Z AUTO 00000KT 7SM -RA OVC015 09/08 A3002 RMK AO2
RAB1157 SLP177 P0003 T00890078





000
SAUS46 KMTR 231157
MTRMHS
METAR KMHS 231156Z AUTO VRB03KT 10SM BKN016 BKN030 OVC110 09/08
A3001 RMK AO2 RAE50 SLP173 P0002 60017 70021 T00940078 10094 20089
55014





000
SAUS46 KMTR 231154
MTRMHS
SPECI KMHS 231153Z AUTO 00000KT 10SM BKN016 BKN033 OVC110 09/08
A3000 RMK AO2 RAE50 P0002





000
SAUS46 KMTR 230857
MTRMHS
METAR KMHS 230856Z AUTO VRB04KT 10SM -RA SCT030 OVC055 09/07 A3005
RMK AO2 SLP183 P0003 60006 T00940072 55005





000
SAUS46 KMTR 230757
MTRMHS
METAR KMHS 230756Z AUTO VRB06KT 8SM -RA SCT029 BKN035 OVC060 09/07
A3004 RMK AO2 RAB28 SLP180 P0001 T00940072 401500050





000
SAUS46 KMTR 230726
MTRMHS
SPECI KMHS 230725Z AUTO 09005KT 9SM BKN027 BKN035 OVC047 09/07 A3006
RMK AO2 T00890067





000
SAUS46 KMTR 230657
MTRMHS
METAR KMHS 230656Z AUTO 00000KT 10SM FEW030 BKN047 OVC055 09/07
A3006 RMK AO2 RAE53 SLP186 P0002 T00940067





000
SAUS46 KMTR 230557
MTRMHS
METAR KMHS 230556Z AUTO VRB03KT 10SM -RA SCT040 OVC048 09/07 A3007
RMK AO2 SLP191 P0003 60004 T00890067 10117 20089 51016





000
SAUS46 KMTR 230505
MTRMHS
SPECI KMHS 230504Z AUTO 00000KT 9SM -RA SCT028 BKN050 OVC060 09/06
A3006 RMK AO2 P0001 T00890061





000
SAUS46 KMTR 230505
MTRMHS
SPECI KMHS 230504Z AUTO 00000KT 9SM -RA SCT028 BKN050 OVC060 09/06
A3006 RMK AO2 P0001 T00890061





000
SAUS46 KMTR 230457
MTRMHS
METAR KMHS 230456Z AUTO VRB03KT 10SM -RA BKN028 BKN040 OVC049 09/06
A3005 RMK AO2 SLP188 P0001 T00890061





000
SAUS46 KMTR 230457
MTRMHS
METAR KMHS 230456Z AUTO VRB03KT 10SM -RA BKN028 BKN040 OVC049 09/06
A3005 RMK AO2 SLP188 P0001 T00890061





000
SAUS46 KMTR 230257
MTRMHS
METAR KMHS 230256Z AUTO 00000KT 10SM FEW031 BKN045 OVC055 10/05
A3001 RMK AO2 RAB16E32 SLP178 P0000 60000 T01000050 58004





000
SAUS46 KMTR 230057
MTRMHS
METAR KMHS 230056Z AUTO 11003KT 10SM OVC039 11/04 A3002 RMK AO2
SLP178 T01110039





000
SAUS46 KMTR 230057
MTRMHS
METAR KMHS 230056Z AUTO 11003KT 10SM OVC039 11/04 A3002 RMK AO2
SLP178 T01110039





000
SAUS46 KMTR 222358
MTRMHS
METAR KMHS 222356Z AUTO 11004KT 10SM OVC042 12/04 A3002 RMK AO2
SLP181 T01170044 10150 20117 55005





000
SAUS46 KMTR 222358
MTRMHS
METAR KMHS 222356Z AUTO 11004KT 10SM OVC042 12/04 A3002 RMK AO2
SLP181 T01170044 10150 20117 55005





000
SAUS46 KMTR 222257
MTRMHS
METAR KMHS 222256Z AUTO 00000KT 10SM OVC038 13/06 A3002 RMK AO2
SLP177 T01280056





000
SAUS46 KMTR 222257
MTRMHS
METAR KMHS 222256Z AUTO 00000KT 10SM OVC038 13/06 A3002 RMK AO2
SLP177 T01280056





000
SAUS46 KMTR 222057
MTRMHS
METAR KMHS 222056Z AUTO 00000KT 10SM BKN036 OVC043 14/07 A3004 RMK
AO2 SLP185 T01390067 58015





000
SAUS46 KMTR 221957
MTRMHS
METAR KMHS 221956Z AUTO 10SM SCT042 15/06 A3006 RMK AO2 SLP189
T01500056





000
SAUS46 KMTR 221857
MTRMHS
METAR KMHS 221856Z AUTO 00000KT 10SM OVC044 13/04 A3009 RMK AO2
SLP202 T01330044





000
SAUS46 KMTR 221758
MTRMHS
METAR KMHS 221756Z AUTO 10SM OVC046 12/04 A3009 RMK AO2 SLP203
T01170044 10117 20056 51010





000
SAUS46 KMTR 221758
MTRMHS
METAR KMHS 221756Z AUTO 10SM OVC046 12/04 A3009 RMK AO2 SLP203
T01170044 10117 20056 51010





000
SAUS46 KMTR 221657
MTRMHS
METAR KMHS 221656Z AUTO 13004KT 10SM BKN040 11/03 A3009 RMK AO2
SLP203 T01110033





000
SAUS46 KMTR 221657
MTRMHS
METAR KMHS 221656Z AUTO 13004KT 10SM BKN040 11/03 A3009 RMK AO2
SLP203 T01110033





000
SAUS46 KMTR 221557
MTRMHS
METAR KMHS 221556Z AUTO 00000KT 10SM OVC036 08/04 A3007 RMK AO2
SLP202 T00780044





000
SAUS46 KMTR 221557
MTRMHS
METAR KMHS 221556Z AUTO 00000KT 10SM OVC036 08/04 A3007 RMK AO2
SLP202 T00780044





000
SAUS46 KMTR 221358
MTRMHS
METAR KMHS 221356Z AUTO 00000KT 10SM BKN037 06/04 A3007 RMK AO2
SLP201 T00610044





000
SAUS46 KMTR 221259
MTRMHS
METAR KMHS 221256Z AUTO 00000KT 10SM BKN110 06/04 A3006 RMK AO2
SLP196 T00610044





000
SAUS46 KMTR 221157
MTRMHS
METAR KMHS 221156Z AUTO 00000KT 10SM BKN110 06/04 A3006 RMK AO2
SLP192 T00610039 10067 20050 57002





000
SAUS46 KMTR 221057
MTRMHS
METAR KMHS 221056Z AUTO 00000KT 10SM OVC120 07/04 A3005 RMK AO2
SLP188 T00670039





000
SAUS46 KMTR 221057
MTRMHS
METAR KMHS 221056Z AUTO 00000KT 10SM OVC120 07/04 A3005 RMK AO2
SLP188 T00670039





000
SAUS46 KMTR 220957
MTRMHS
METAR KMHS 220956Z AUTO 00000KT 10SM BKN120 06/04 A3007 RMK AO2
SLP197 T00560039





000
SAUS46 KMTR 220957
MTRMHS
METAR KMHS 220956Z AUTO 00000KT 10SM BKN120 06/04 A3007 RMK AO2
SLP197 T00560039





    US Dept of Commerce
    National Oceanic and Atmospheric Administration
    National Weather Service
    1325 East West Highway
    Silver Spring, MD 20910
    Page Author: NWS Internet Services Team
Disclaimer
Information Quality
Credits
Glossary
Privacy Policy
Freedom of Information Act (FOIA)
About Us
Career Opportunities